This demonstration page uses our WeatherBlox Daily Observations layout. Learn more.

Left ArrowRight Arrow

30.21309, -93.2044

Hourly Observations for October 3, 2015

Temp ( °F °C ) Dew Point ( °F °C ) Humidity (%) Winds ( mph kmh ) Pressure ( in mb ) Visibility ( mi km ) Precip ( " mm )
1:15 am 01:15 Clear 61 16 52 11.1 73 73 NNE 6 9 N/A 10 16 0.00 0.00
1:35 am 01:35 Clear 59 15.2 52 11.1 77 77 NNE 3 6 N/A 10 16 0.00 0.00
1:55 am 01:55 Clear 59 15.1 52 11 77 77 NNE 3 6 N/A 10 16 0.00 0.00
2:15 am 02:15 Clear 59 14.8 52 11 78 78 NNE 3 6 N/A 10 16 0.00 0.00
2:35 am 02:35 Clear 58 14.5 52 10.9 79 79 NNE 5 7 N/A 10 16 0.00 0.00
2:55 am 02:55 Clear 58 14.5 51 10.8 79 79 Calm N/A 10 16 0.00 0.00
3:15 am 03:15 Clear 58 14.6 52 11 79 79 Calm N/A 10 16 0.00 0.00
3:35 am 03:35 Clear 58 14.2 52 11.1 82 82 NW 3 6 N/A 10 16 0.00 0.00
4:35 am 04:35 Clear 56 13.2 52 10.9 86 86 NNW 3 6 N/A 10 16 0.00 0.00
4:55 am 04:55 Clear 56 13.1 52 11 87 87 NNW 5 7 N/A 10 16 0.00 0.00
5:15 am 05:15 Clear 55 12.7 52 11 89 89 N 3 6 N/A 10 16 0.00 0.00
6:00 am 06:00 Mostly Clear 55 13 52 11 88 88 N 3 6 29.85 1011 10 16 0.00 0.00
6:50 am 06:50 Mostly Clear 55 13 52 11 88 88 N 3 6 29.85 1011 10 16 0.00 0.00
7:50 am 07:50 Mostly Sunny 57 14 54 12 88 88 N 3 6 29.88 1012 10 16 0.00 0.00
9:50 am 09:50 Mostly Sunny 63 17 54 12 73 73 NNE 6 9 29.88 1012 10 16 0.00 0.00
10:50 am 10:50 Mostly Sunny 70 21 55 13 60 60 NE 10 17 29.88 1012 10 16 0.00 0.00
11:50 am 11:50 Cloudy 72 22 66 19 83 83 W 9 15 29.59 1002 7 11 0.00 0.00
12:50 pm 12:50 Mostly Sunny 73 23 55 13 53 53 NNW 3 6 29.88 1012 10 16 0.00 0.00
1:50 pm 13:50 Mostly Sunny 75 24 55 13 50 50 N 10 17 29.80 1009 10 16 0.00 0.00
9:50 pm 21:50 Mostly Clear 64 18 57 14 78 78 ENE 5 7 29.85 1011 10 16 0.00 0.00
10:15 pm 22:15 Clear 64 17.5 55 13 75 75 ENE 6 9 N/A 10 16 0.00 0.00
10:35 pm 22:35 Clear 63 17 55 12.7 76 76 ENE 5 7 N/A 10 16 0.00 0.00
10:55 pm 22:55 Clear 62 16.6 55 12.5 77 77 ENE 5 7 N/A 10 16 0.00 0.00
11:15 pm 23:15 Clear 62 16.6 54 12.3 76 76 ENE 7 11 N/A 10 16 0.00 0.00
11:35 pm 23:35 Clear 61 16.2 54 12.2 77 77 ENE 7 11 N/A 10 16 0.00 0.00
11:55 pm 23:55 Clear 61 16 54 12.1 78 78 ENE 6 9 N/A 10 16 0.00 0.00

Powered by AerisWeather